createdAt,value
2022-08-07T00:01:00.358Z,5.97
2022-08-07T00:04:15.670Z,6.20
2022-08-07T00:07:19.021Z,6.20
2022-08-07T00:10:26.417Z,6.20
2022-08-07T00:13:29.656Z,6.25
2022-08-07T00:16:31.713Z,6.90
2022-08-07T00:19:59.988Z,5.72
2022-08-07T00:22:55.905Z,6.35
2022-08-07T00:26:02.798Z,7.30
2022-08-07T00:29:13.037Z,6.72
2022-08-07T00:32:19.000Z,5.85
2022-08-07T00:35:30.612Z,5.82
2022-08-07T00:38:34.218Z,6.50
2022-08-07T00:41:37.343Z,6.03
2022-08-07T00:44:55.899Z,6.90
2022-08-07T00:48:08.985Z,6.05
2022-08-07T00:51:20.636Z,6.18
2022-08-07T00:54:23.371Z,5.90
2022-08-07T00:57:26.883Z,5.50
2022-08-07T01:00:36.187Z,5.80
2022-08-07T01:03:55.610Z,5.55
2022-08-07T01:07:01.644Z,6.15
2022-08-07T01:10:11.314Z,6.18
2022-08-07T01:13:16.484Z,5.93
2022-08-07T01:16:29.967Z,6.35
2022-08-07T01:19:34.434Z,6.22
2022-08-07T01:22:54.354Z,6.25
2022-08-07T01:26:08.453Z,6.47
2022-08-07T01:29:15.814Z,6.22
2022-08-07T01:32:18.921Z,5.60
2022-08-07T01:35:24.370Z,5.75
2022-08-07T01:38:29.285Z,5.65
2022-08-07T01:41:40.821Z,5.75
2022-08-07T01:45:10.108Z,5.93
2022-08-07T01:48:30.580Z,5.82
2022-08-07T01:52:03.694Z,5.47
2022-08-07T01:55:00.970Z,5.60
2022-08-07T01:58:29.693Z,5.20
2022-08-07T02:02:01.684Z,6.43
2022-08-07T02:05:16.187Z,5.05
2022-08-07T02:08:40.576Z,5.28
2022-08-07T02:12:04.879Z,4.93
2022-08-07T02:15:14.232Z,5.13
2022-08-07T02:18:19.437Z,5.35
2022-08-07T02:21:23.790Z,5.88
2022-08-07T02:24:30.127Z,5.80
2022-08-07T02:27:34.279Z,6.03
2022-08-07T02:30:39.648Z,4.65
2022-08-07T02:34:01.888Z,4.93
2022-08-07T02:37:08.872Z,5.43
2022-08-07T02:40:31.127Z,5.67
2022-08-07T02:43:39.592Z,5.95
2022-08-07T02:46:46.548Z,5.10
2022-08-07T02:49:58.068Z,6.05
2022-08-07T02:53:11.858Z,5.68
2022-08-07T02:56:21.903Z,5.97
2022-08-07T02:59:27.662Z,5.18
2022-08-07T03:02:36.023Z,4.60
2022-08-07T03:05:41.339Z,5.43
2022-08-07T03:08:44.487Z,5.38
2022-08-07T03:11:52.536Z,4.95
2022-08-07T03:15:07.864Z,5.68
2022-08-07T03:18:17.540Z,4.95
2022-08-07T03:21:24.554Z,4.75
2022-08-07T03:24:28.456Z,5.07
2022-08-07T03:27:58.794Z,5.72
2022-08-07T03:31:17.546Z,5.30
2022-08-07T03:34:22.883Z,5.88
2022-08-07T03:37:37.331Z,5.38
2022-08-07T03:40:57.476Z,5.18
2022-08-07T03:44:02.062Z,6.47
2022-08-07T03:47:13.927Z,5.32
2022-08-07T03:50:22.999Z,5.55
2022-08-07T03:54:00.574Z,6.45
2022-08-07T03:57:03.309Z,5.57
2022-08-07T04:00:08.317Z,5.82
2022-08-07T04:03:18.594Z,6.32
2022-08-07T04:06:37.634Z,6.25
2022-08-07T04:09:50.336Z,5.55
2022-08-07T04:12:58.093Z,5.55
2022-08-07T04:16:02.703Z,4.85
2022-08-07T04:19:14.894Z,6.55
2022-08-07T04:22:29.109Z,6.13
2022-08-07T04:25:40.978Z,5.85
2022-08-07T04:28:45.858Z,6.82
2022-08-07T04:32:03.099Z,6.32
2022-08-07T04:35:11.531Z,5.85
2022-08-07T04:38:15.854Z,5.57
2022-08-07T04:41:22.879Z,5.68
2022-08-07T04:44:27.178Z,5.53
2022-08-07T04:47:57.666Z,7.00
2022-08-07T04:51:27.701Z,5.32
2022-08-07T04:54:39.323Z,6.47
2022-08-07T04:58:27.124Z,5.70
2022-08-07T05:01:44.861Z,6.60
2022-08-07T05:05:54.192Z,6.35
2022-08-07T05:09:01.494Z,7.03
2022-08-07T05:12:15.594Z,9.40
2022-08-07T05:15:42.418Z,7.40
2022-08-07T05:18:51.415Z,6.75
2022-08-07T05:22:00.495Z,6.07
2022-08-07T05:25:11.678Z,6.53
2022-08-07T05:28:29.195Z,6.90
2022-08-07T05:31:38.544Z,6.07
2022-08-07T05:34:48.798Z,5.88
2022-08-07T05:38:09.036Z,6.53
2022-08-07T05:41:15.678Z,6.20
2022-08-07T05:44:29.391Z,6.95
2022-08-07T05:47:38.469Z,7.13
2022-08-07T05:50:59.628Z,6.18
2022-08-07T05:54:13.134Z,6.95
2022-08-07T05:57:30.403Z,6.05
2022-08-07T06:00:41.062Z,5.25
2022-08-07T06:03:58.932Z,7.30
2022-08-07T06:07:10.371Z,6.70
2022-08-07T06:10:28.602Z,6.40
2022-08-07T06:14:10.927Z,8.13
2022-08-07T06:16:56.296Z,7.03
2022-08-07T06:20:05.668Z,7.70
2022-08-07T06:23:46.402Z,8.20
2022-08-07T06:26:33.319Z,7.35
2022-08-07T06:29:38.985Z,7.05
2022-08-07T06:32:42.914Z,7.55
2022-08-07T06:36:06.181Z,7.00
2022-08-07T06:40:12.875Z,8.15
2022-08-07T06:42:37.583Z,7.18
2022-08-07T06:46:01.200Z,6.82
2022-08-07T06:49:04.847Z,7.72
2022-08-07T06:52:11.455Z,8.02
2022-08-07T06:55:31.287Z,7.57
2022-08-07T07:00:13.060Z,7.13
2022-08-07T07:02:54.491Z,8.40
2022-08-07T07:06:02.926Z,7.75
2022-08-07T07:09:36.238Z,8.25
2022-08-07T07:12:53.461Z,8.77
2022-08-07T07:16:03.355Z,8.18
2022-08-07T07:19:54.378Z,8.68
2022-08-07T07:22:33.983Z,9.38
2022-08-07T07:26:34.981Z,8.55
2022-08-07T07:29:56.397Z,7.75
2022-08-07T07:32:49.449Z,8.45
2022-08-07T07:36:04.865Z,9.00
2022-08-07T07:39:09.260Z,8.38
2022-08-07T07:42:19.779Z,9.18
2022-08-07T07:46:53.203Z,8.27
2022-08-07T07:48:52.022Z,7.53
2022-08-07T07:52:03.953Z,8.55
2022-08-07T07:55:09.378Z,8.13
2022-08-07T07:58:15.481Z,8.13
2022-08-07T08:02:03.271Z,9.30
2022-08-07T08:04:45.792Z,8.35
2022-08-07T08:08:01.423Z,7.75
2022-08-07T08:11:08.392Z,8.23
2022-08-07T08:14:11.212Z,9.15
2022-08-07T08:17:58.243Z,5.75
2022-08-07T08:20:39.719Z,5.65
2022-08-07T08:24:06.936Z,5.97
2022-08-07T08:27:34.952Z,7.03
2022-08-07T08:30:42.800Z,6.07
2022-08-07T08:33:57.962Z,5.47
2022-08-07T08:37:03.568Z,5.65
2022-08-07T08:40:33.175Z,6.63
2022-08-07T08:43:58.723Z,5.63
2022-08-07T08:47:10.094Z,5.45
2022-08-07T08:50:35.278Z,6.10
2022-08-07T08:53:55.089Z,5.45
2022-08-07T08:57:00.886Z,5.95
2022-08-07T09:00:09.565Z,4.22
2022-08-07T09:03:55.218Z,7.13
2022-08-07T09:07:34.003Z,5.53
2022-08-07T09:11:24.214Z,5.55
2022-08-07T09:14:34.220Z,5.88
2022-08-07T09:17:59.505Z,5.00
2022-08-07T09:21:57.769Z,6.07
2022-08-07T09:25:18.098Z,5.95
2022-08-07T09:30:07.591Z,8.25
2022-08-07T09:31:56.186Z,7.93
2022-08-07T09:36:05.187Z,7.18
2022-08-07T09:39:11.526Z,5.55
2022-08-07T09:42:52.908Z,6.63
2022-08-07T09:47:51.997Z,6.78
2022-08-07T09:50:18.895Z,4.88
2022-08-07T09:53:26.347Z,5.18
2022-08-07T09:56:58.576Z,6.03
2022-08-07T10:00:09.046Z,8.20
2022-08-07T10:04:05.371Z,7.88
2022-08-07T10:07:53.296Z,6.90
2022-08-07T10:12:00.374Z,6.75
2022-08-07T10:14:55.655Z,6.10
2022-08-07T10:18:26.574Z,7.07
2022-08-07T10:22:14.731Z,6.43
2022-08-07T10:25:22.848Z,5.18
2022-08-07T10:29:04.686Z,5.22
2022-08-07T10:32:36.902Z,5.03
2022-08-07T10:36:29.808Z,5.82
2022-08-07T10:40:08.754Z,4.00
2022-08-07T10:43:35.149Z,4.57
2022-08-07T10:47:11.825Z,3.97
2022-08-07T10:50:25.667Z,3.45
2022-08-07T10:53:44.238Z,4.43
2022-08-07T11:00:36.803Z,3.72
2022-08-07T11:04:11.237Z,4.15
2022-08-07T11:07:59.589Z,3.72
2022-08-07T11:11:10.622Z,3.05
2022-08-07T11:14:45.308Z,3.22
2022-08-07T11:18:37.058Z,4.18
2022-08-07T11:22:00.772Z,4.38
2022-08-07T11:25:30.503Z,3.50
2022-08-07T11:28:53.404Z,3.50
2022-08-07T11:32:08.456Z,3.25
2022-08-07T11:35:26.903Z,2.75
2022-08-07T11:38:54.189Z,3.53
2022-08-07T11:42:07.703Z,3.58
2022-08-07T11:45:35.271Z,2.78
2022-08-07T11:49:50.490Z,3.00
2022-08-07T11:53:05.243Z,3.15
2022-08-07T11:56:27.102Z,3.50
2022-08-07T12:00:11.670Z,2.88
2022-08-07T12:03:00.512Z,2.83
2022-08-07T12:09:42.614Z,2.95
2022-08-07T12:13:00.729Z,3.35
2022-08-07T12:16:09.142Z,3.50
2022-08-07T12:19:22.025Z,4.05
2022-08-07T12:22:46.974Z,3.03
2022-08-07T12:26:46.072Z,2.95
2022-08-07T12:33:18.797Z,2.85
2022-08-07T12:36:33.150Z,4.05
2022-08-07T12:39:43.663Z,3.88
2022-08-07T12:42:57.220Z,3.72
2022-08-07T12:46:32.857Z,3.85
2022-08-07T12:49:51.248Z,4.65
2022-08-07T12:53:19.044Z,4.47
2022-08-07T12:56:41.485Z,3.38
2022-08-07T12:59:54.769Z,3.28
2022-08-07T13:04:02.203Z,3.20
2022-08-07T13:08:12.199Z,3.45
2022-08-07T13:10:51.777Z,3.50
2022-08-07T13:14:09.465Z,3.45
2022-08-07T13:17:52.705Z,3.40
2022-08-07T13:21:50.087Z,3.60
2022-08-07T13:24:53.846Z,3.00
2022-08-07T13:28:13.231Z,3.80
2022-08-07T13:31:26.517Z,3.13
2022-08-07T13:34:50.836Z,2.83
2022-08-07T13:38:16.006Z,3.22
2022-08-07T13:41:18.011Z,2.80
2022-08-07T13:44:34.325Z,2.90
2022-08-07T13:48:07.689Z,3.10
2022-08-07T13:51:27.261Z,2.78
2022-08-07T13:54:31.147Z,2.72
2022-08-07T13:57:47.882Z,3.17
2022-08-07T14:01:12.046Z,2.75
2022-08-07T14:04:21.479Z,2.58
2022-08-07T14:07:33.607Z,3.33
2022-08-07T14:10:43.548Z,2.50
2022-08-07T14:13:56.102Z,3.22
2022-08-07T14:17:13.127Z,2.40
2022-08-07T14:20:40.602Z,3.30
2022-08-07T14:23:59.135Z,2.60
2022-08-07T14:28:09.631Z,3.70
2022-08-07T14:30:33.175Z,2.65
2022-08-07T14:33:44.958Z,3.05
2022-08-07T14:36:56.241Z,2.83
2022-08-07T14:40:17.515Z,2.60
2022-08-07T14:46:51.887Z,2.70
2022-08-07T14:50:11.523Z,2.53
2022-08-07T14:53:17.641Z,2.90
2022-08-07T14:56:43.526Z,2.47
2022-08-07T15:00:04.649Z,2.20
2022-08-07T15:03:18.976Z,4.15
2022-08-07T15:06:28.276Z,2.65
2022-08-07T15:09:59.977Z,1.98
2022-08-07T15:13:06.352Z,2.42
2022-08-07T15:16:34.994Z,2.47
2022-08-07T15:20:31.650Z,2.63
2022-08-07T15:23:20.094Z,3.08
2022-08-07T15:26:33.495Z,2.38
2022-08-07T15:30:04.494Z,1.58
2022-08-07T15:33:19.358Z,1.75
2022-08-07T15:39:59.016Z,2.08
2022-08-07T15:46:54.143Z,1.70
2022-08-07T15:50:04.971Z,1.83
2022-08-07T15:53:13.745Z,2.10
2022-08-07T15:56:21.733Z,1.92
2022-08-07T15:59:38.935Z,1.88
2022-08-07T16:02:46.909Z,1.92
2022-08-07T16:05:51.908Z,1.75
2022-08-07T16:08:57.973Z,2.00
2022-08-07T16:12:12.205Z,1.70
2022-08-07T16:15:54.504Z,2.03
2022-08-07T16:19:16.008Z,1.73
2022-08-07T16:22:33.434Z,1.63
2022-08-07T16:25:56.199Z,1.52
2022-08-07T16:30:10.764Z,1.60
2022-08-07T16:34:02.679Z,1.23
2022-08-07T16:37:02.432Z,1.23
2022-08-07T16:40:34.653Z,1.38
2022-08-07T16:44:06.722Z,1.77
2022-08-07T16:47:51.602Z,1.25
2022-08-07T16:51:20.975Z,1.50
2022-08-07T16:55:11.398Z,0.93
2022-08-07T16:59:02.334Z,1.42
2022-08-07T17:02:52.004Z,2.00
2022-08-07T17:06:29.130Z,1.73
2022-08-07T17:10:08.199Z,1.45
2022-08-07T17:13:20.470Z,1.13
2022-08-07T17:16:56.889Z,1.30
2022-08-07T17:20:14.277Z,1.45
2022-08-07T17:23:32.554Z,1.95
2022-08-07T17:26:58.128Z,1.52
2022-08-07T17:30:15.931Z,1.80
2022-08-07T17:34:08.465Z,1.17
2022-08-07T17:38:05.500Z,1.38
2022-08-07T17:41:12.455Z,1.35
2022-08-07T17:44:50.054Z,1.80
2022-08-07T17:48:05.174Z,1.30
2022-08-07T17:51:21.378Z,1.20
2022-08-07T17:54:54.597Z,2.47
2022-08-07T17:58:07.418Z,1.80
2022-08-07T18:01:21.536Z,1.55
2022-08-07T18:04:31.083Z,1.48
2022-08-07T18:07:43.919Z,2.03
2022-08-07T18:12:06.775Z,2.00
2022-08-07T18:15:09.722Z,1.60
2022-08-07T18:18:45.570Z,1.88
2022-08-07T18:21:54.867Z,2.58
2022-08-07T18:25:19.137Z,1.95
2022-08-07T18:28:58.529Z,2.10
2022-08-07T18:32:13.071Z,2.25
2022-08-07T18:35:52.016Z,2.67
2022-08-07T18:40:08.710Z,3.22
2022-08-07T18:42:55.073Z,2.70
2022-08-07T18:46:24.703Z,1.90
2022-08-07T18:50:31.639Z,2.10
2022-08-07T18:53:40.096Z,1.83
2022-08-07T18:57:30.859Z,2.17
2022-08-07T19:00:53.671Z,3.05
2022-08-07T19:04:03.890Z,1.63
2022-08-07T19:07:34.235Z,1.92
2022-08-07T19:10:49.799Z,2.08
2022-08-07T19:14:19.957Z,1.60
2022-08-07T19:17:59.055Z,2.05
2022-08-07T19:21:44.287Z,2.20
2022-08-07T19:24:48.890Z,2.10
2022-08-07T19:28:57.514Z,2.20
2022-08-07T19:31:37.204Z,2.28
2022-08-07T19:34:59.426Z,2.00
2022-08-07T19:38:15.935Z,2.45
2022-08-07T19:41:45.042Z,2.78
2022-08-07T19:44:47.869Z,2.63
2022-08-07T19:47:56.067Z,2.42
2022-08-07T19:51:04.593Z,2.40
2022-08-07T19:54:44.429Z,2.30
2022-08-07T19:58:02.455Z,2.97
2022-08-07T20:01:17.610Z,2.25
2022-08-07T20:04:31.048Z,2.80
2022-08-07T20:07:46.509Z,1.73
2022-08-07T20:10:56.771Z,2.05
2022-08-07T20:14:07.237Z,1.80
2022-08-07T20:17:18.347Z,2.13
2022-08-07T20:20:26.817Z,2.00
2022-08-07T20:23:43.288Z,2.22
2022-08-07T20:30:00.321Z,1.63
2022-08-07T20:33:09.190Z,1.95
2022-08-07T20:36:30.390Z,1.92
2022-08-07T20:40:02.652Z,1.65
2022-08-07T20:42:59.057Z,1.60
2022-08-07T20:46:26.044Z,1.77
2022-08-07T20:49:59.782Z,1.83
2022-08-07T20:52:51.181Z,1.60
2022-08-07T20:56:00.104Z,1.58
2022-08-07T20:59:06.075Z,1.93
2022-08-07T21:02:54.015Z,1.65
2022-08-07T21:06:21.603Z,1.80
2022-08-07T21:09:51.507Z,1.95
2022-08-07T21:12:58.212Z,1.48
2022-08-07T21:16:03.528Z,2.00
2022-08-07T21:19:14.077Z,1.48
2022-08-07T21:22:19.168Z,2.17
2022-08-07T21:25:39.162Z,2.75
2022-08-07T21:28:51.058Z,1.83
2022-08-07T21:32:46.920Z,1.60
2022-08-07T21:36:04.778Z,2.40
2022-08-07T21:39:46.303Z,1.98
2022-08-07T21:42:57.096Z,2.15
2022-08-07T21:46:24.352Z,2.33
2022-08-07T21:50:02.022Z,1.88
2022-08-07T21:53:12.998Z,2.90
2022-08-07T21:56:40.260Z,1.52
2022-08-07T22:00:22.162Z,2.92
2022-08-07T22:03:32.045Z,2.83
2022-08-07T22:06:52.741Z,1.75
2022-08-07T22:10:01.277Z,2.28
2022-08-07T22:13:13.745Z,2.47
2022-08-07T22:16:44.881Z,2.30
2022-08-07T22:20:06.055Z,2.03
2022-08-07T22:23:17.291Z,1.83
2022-08-07T22:26:35.202Z,2.17
2022-08-07T22:29:49.708Z,2.63
2022-08-07T22:33:03.948Z,2.97
2022-08-07T22:36:21.600Z,1.63
2022-08-07T22:39:52.737Z,2.25
2022-08-07T22:43:02.983Z,1.85
2022-08-07T22:47:02.371Z,2.15
2022-08-07T22:50:29.112Z,2.40
2022-08-07T22:54:08.720Z,2.22
2022-08-07T22:57:37.369Z,1.70
2022-08-07T23:01:05.357Z,2.05
2022-08-07T23:04:20.105Z,2.05
2022-08-07T23:07:41.425Z,2.47
2022-08-07T23:11:18.363Z,2.45
2022-08-07T23:14:36.548Z,2.13
2022-08-07T23:17:58.985Z,2.08
2022-08-07T23:21:30.193Z,2.20
2022-08-07T23:24:56.221Z,2.03
2022-08-07T23:28:35.355Z,2.85
2022-08-07T23:34:20.951Z,1.80
2022-08-07T23:35:47.458Z,2.60
2022-08-07T23:39:12.249Z,2.28
2022-08-07T23:42:49.445Z,2.88
2022-08-07T23:46:07.654Z,2.10
2022-08-07T23:49:50.788Z,2.30
2022-08-07T23:53:05.241Z,2.33
2022-08-07T23:56:31.380Z,2.40
